Time;durP1;ratioP1;P1;durP2;ratioP2;P2;SDS_P1;SDS_P2;PMS_P1;PMS_P2;Temp;Humidity;BMP_temperature;BMP_pressure;BME280_temperature;BME280_humidity;BME280_pressure;Samples;Min_cycle;Max_cycle;Signal;HPM_P1;HPM_P2
2023/01/11 00:02:06;;;;;;;;;;;;;;;3.71;82.79;101530.70;107562;1256;60339;-87
2023/01/11 00:04:39;;;;;;;;;;;;;;;3.72;82.95;101527.48;107457;1253;73486;-86
2023/01/11 00:11:08;;;;;;;;;;;;;;;3.79;83.18;101525.30;107296;1253;72528;-87
2023/01/11 00:14:08;;;;;;;;;;;;;;;3.73;83.06;101520.22;107221;1260;59619;-86
2023/01/11 00:24:19;;;;;;;;;;;;;;;3.62;83.17;101523.73;107345;1253;66681;-88
2023/01/11 00:30:54;;;;;;;;;;;;;;;3.41;83.01;101521.81;107330;1254;61141;-88
2023/01/11 00:37:42;;;;;;;;;;;;;;;3.26;83.46;101513.53;107301;1253;75355;-88
2023/01/11 00:54:14;;;;;;;;;;;;;;;3.23;84.15;101527.89;107444;1253;74359;-86
2023/01/11 01:00:41;;;;;;;;;;;;;;;3.38;84.53;101527.52;107477;1259;74152;-86
2023/01/11 01:07:00;;;;;;;;;;;;;;;3.55;84.80;101526.37;107217;1254;61266;-86
2023/01/11 01:09:27;;;;;;;;;;;;;;;3.61;84.81;101533.69;107222;1259;74432;-82
2023/01/11 01:11:54;;;;;;;;;;;;;;;3.68;84.90;101534.69;107310;1260;67069;-82
2023/01/11 01:14:28;;;;;;;;;;;;;;;3.75;84.79;101533.05;107349;1254;70379;-82
2023/01/11 01:16:56;;;;;;;;;;;;;;;3.83;84.96;101533.02;107315;1257;59981;-82
2023/01/11 01:19:37;;;;;;;;;;;;;;;3.89;84.92;101528.75;107471;1254;60290;-82
2023/01/11 01:22:05;;;;;;;;;;;;;;;3.95;84.87;101522.34;107646;1253;74723;-82
2023/01/11 01:24:32;;;;;;;;;;;;;;;3.98;84.83;101522.52;107496;1254;66000;-82
2023/01/11 01:26:59;;;;;;;;;;;;;;;3.99;84.76;101522.63;107843;1253;72737;-81
2023/01/11 01:29:35;;;;;;;;;;;;;;;3.99;84.78;101525.95;107536;1254;61150;-87
2023/01/11 01:32:03;;;;;;;;;;;;;;;4.02;84.72;101526.48;107892;1253;61029;-82
2023/01/11 01:34:31;;;;;;;;;;;;;;;4.05;84.74;101527.00;107690;1255;74733;-82
2023/01/11 01:36:58;;;;;;;;;;;;;;;4.08;84.69;101528.20;107781;1256;67104;-83
2023/01/11 01:39:25;;;;;;;;;;;;;;;4.09;84.78;101530.40;107480;1258;73107;-82
2023/01/11 01:41:56;;;;;;;;;;;;;;;4.13;84.77;101523.83;107400;1257;59701;-82
2023/01/11 01:44:49;;;;;;;;;;;;;;;4.15;84.74;101520.85;107466;1254;61408;-87
2023/01/11 01:47:31;;;;;;;;;;;;;;;4.14;84.62;101512.09;107400;1254;73587;-87
2023/01/11 01:53:49;;;;;;;;;;;;;;;4.16;84.71;101509.94;107418;1254;73266;-87
2023/01/11 01:56:33;;;;;;;;;;;;;;;4.17;84.71;101505.70;107435;1257;61168;-86
2023/01/11 01:59:03;;;;;;;;;;;;;;;4.20;84.71;101505.16;107504;1254;61276;-86
2023/01/11 02:01:47;;;;;;;;;;;;;;;4.22;84.75;101497.84;107308;1259;72730;-86
2023/01/11 02:04:43;;;;;;;;;;;;;;;4.25;84.71;101497.87;107431;1254;65738;-87
2023/01/11 02:07:47;;;;;;;;;;;;;;;4.25;84.65;101499.09;107484;1254;72717;-87
2023/01/11 02:10:47;;;;;;;;;;;;;;;4.25;84.66;101499.21;107188;1259;61776;-87
2023/01/11 02:13:15;;;;;;;;;;;;;;;4.25;84.47;101500.41;107357;1260;61235;-82
2023/01/11 02:15:42;;;;;;;;;;;;;;;4.23;84.57;101499.63;107389;1259;74730;-83
2023/01/11 02:18:18;;;;;;;;;;;;;;;4.20;84.44;101499.98;107426;1260;67327;-83
2023/01/11 02:20:51;;;;;;;;;;;;;;;4.19;84.47;101493.09;107790;1255;72714;-83
2023/01/11 02:23:21;;;;;;;;;;;;;;;4.17;84.36;101490.05;107495;1260;59744;-81
2023/01/11 02:26:09;;;;;;;;;;;;;;;4.15;84.38;101486.80;107547;1257;61176;-86
2023/01/11 02:28:48;;;;;;;;;;;;;;;4.12;84.34;101482.09;107283;1255;74661;-88
2023/01/11 02:31:36;;;;;;;;;;;;;;;4.11;84.46;101482.70;107773;1253;66313;-88
2023/01/11 02:34:22;;;;;;;;;;;;;;;4.08;84.32;101479.98;107399;1254;72396;-88
2023/01/11 02:36:55;;;;;;;;;;;;;;;4.02;84.30;101473.69;107538;1258;61113;-82
2023/01/11 02:39:40;;;;;;;;;;;;;;;4.04;84.37;101477.94;107666;1259;60291;-83
2023/01/11 02:45:02;;;;;;;;;;;;;;;3.99;84.40;101472.74;107462;1256;66776;-82
2023/01/11 02:47:33;;;;;;;;;;;;;;;3.95;84.37;101468.36;107376;1260;72760;-83
2023/01/11 02:50:01;;;;;;;;;;;;;;;3.92;84.34;101458.98;107637;1255;61298;-83
2023/01/11 02:52:34;;;;;;;;;;;;;;;3.89;84.23;101460.15;107981;1256;59697;-82
2023/01/11 02:55:02;;;;;;;;;;;;;;;3.85;84.38;101460.48;107843;1255;73384;-82
2023/01/11 02:57:29;;;;;;;;;;;;;;;3.85;84.40;101461.15;107508;1260;65789;-82
2023/01/11 02:59:56;;;;;;;;;;;;;;;3.83;84.43;101459.78;107724;1260;70413;-82
2023/01/11 03:02:24;;;;;;;;;;;;;;;3.81;84.38;101456.54;107904;1254;61368;-83
2023/01/11 03:05:01;;;;;;;;;;;;;;;3.79;84.47;101451.39;107765;1255;60678;-82
2023/01/11 03:07:28;;;;;;;;;;;;;;;3.74;84.31;101445.67;107557;1254;75208;-82
2023/01/11 03:09:59;;;;;;;;;;;;;;;3.66;84.17;101440.85;107494;1260;65869;-82
2023/01/11 03:12:51;;;;;;;;;;;;;;;3.58;84.15;101437.36;107581;1255;71510;-82
2023/01/11 03:15:39;;;;;;;;;;;;;;;3.47;84.12;101436.14;107773;1254;61235;-82
2023/01/11 03:18:15;;;;;;;;;;;;;;;3.38;84.17;101430.52;107868;1254;59854;-82
2023/01/11 03:24:29;;;;;;;;;;;;;;;3.27;84.39;101426.00;107492;1256;66905;-87
2023/01/11 03:27:29;;;;;;;;;;;;;;;3.22;84.49;101423.44;107345;1254;72764;-87
2023/01/11 03:33:20;;;;;;;;;;;;;;;3.15;84.57;101410.09;107492;1258;61179;-87
2023/01/11 03:36:07;;;;;;;;;;;;;;;3.09;84.48;101402.64;107528;1257;73423;-87
2023/01/11 03:38:43;;;;;;;;;;;;;;;3.02;84.45;101405.64;107295;1261;67645;-86
2023/01/11 03:41:18;;;;;;;;;;;;;;;2.96;84.50;101399.38;107233;1254;71078;-86
2023/01/11 03:43:47;;;;;;;;;;;;;;;2.91;84.43;101400.60;107288;1260;61333;-86
2023/01/11 03:56:21;;;;;;;;;;;;;;;2.60;84.20;101374.29;107244;1254;72548;-88
2023/01/11 04:08:42;;;;;;;;;;;;;;;2.41;84.55;101357.59;107718;1255;65610;-85
2023/01/11 04:11:09;;;;;;;;;;;;;;;2.42;84.84;101357.48;107680;1258;72517;-82
2023/01/11 04:24:01;;;;;;;;;;;;;;;2.28;84.78;101342.49;107253;1254;65512;-87
2023/01/11 04:33:13;;;;;;;;;;;;;;;2.07;84.83;101329.66;107344;1254;61154;-82
2023/01/11 04:35:58;;;;;;;;;;;;;;;2.01;84.75;101327.14;107177;1260;73690;-87
2023/01/11 04:38:26;;;;;;;;;;;;;;;1.97;84.80;101328.30;107618;1254;67070;-82
2023/01/11 04:42:17;;;;;;;;;;;;;;;1.91;84.84;101319.41;107694;1254;71344;-81
2023/01/11 04:44:00;;;;;;;;;;;;;;;1.88;84.86;101321.80;107419;1254;61119;-86
2023/01/11 04:49:57;;;;;;;;;;;;;;;1.81;84.90;101321.43;107464;1257;73127;-82
2023/01/11 04:52:24;;;;;;;;;;;;;;;1.76;85.09;101318.54;107689;1254;66827;-86
2023/01/11 04:55:12;;;;;;;;;;;;;;;1.76;85.02;101314.05;107380;1254;72724;-85
2023/01/11 04:57:39;;;;;;;;;;;;;;;1.73;85.17;101308.30;107506;1254;60944;-81
2023/01/11 05:00:09;;;;;;;;;;;;;;;1.71;85.05;101306.05;107566;1254;60990;-80
2023/01/11 05:02:43;;;;;;;;;;;;;;;1.69;85.14;101306.96;107592;1254;74735;-83
2023/01/11 05:05:21;;;;;;;;;;;;;;;1.67;85.09;101306.84;107803;1254;65717;-82
2023/01/11 05:07:49;;;;;;;;;;;;;;;1.65;85.08;101304.27;107623;1254;71731;-81
2023/01/11 05:10:16;;;;;;;;;;;;;;;1.63;85.21;101305.70;107205;1254;59590;-87
2023/01/11 05:23:21;;;;;;;;;;;;;;;1.61;85.46;101290.98;107437;1254;71291;-87
2023/01/11 05:26:19;;;;;;;;;;;;;;;1.62;85.36;101284.48;107146;1254;60001;-88
2023/01/11 05:28:52;;;;;;;;;;;;;;;1.62;85.41;101274.14;107135;1255;61269;-85
2023/01/11 05:31:35;;;;;;;;;;;;;;;1.63;85.44;101272.14;107334;1255;74737;-88
2023/01/11 05:34:03;;;;;;;;;;;;;;;1.66;85.64;101274.05;107273;1260;66856;-89
2023/01/11 05:36:37;;;;;;;;;;;;;;;1.68;85.56;101273.70;107162;1258;72701;-87
2023/01/11 05:39:34;;;;;;;;;;;;;;;1.69;85.66;101267.38;107103;1254;61356;-87
2023/01/11 05:45:36;;;;;;;;;;;;;;;1.76;85.70;101263.84;107441;1254;76078;-90
2023/01/11 05:48:03;;;;;;;;;;;;;;;1.78;85.63;101259.84;107409;1260;65984;-88
2023/01/11 05:51:05;;;;;;;;;;;;;;;1.80;85.64;101257.02;107333;1254;70255;-87
2023/01/11 05:53:32;;;;;;;;;;;;;;;1.84;85.84;101250.68;106978;1260;61277;-87
2023/01/11 05:59:27;;;;;;;;;;;;;;;1.84;85.64;101236.20;107357;1255;73229;-86
2023/01/11 06:02:06;;;;;;;;;;;;;;;1.84;85.56;101229.42;107330;1254;66777;-90
2023/01/11 06:04:34;;;;;;;;;;;;;;;1.83;85.53;101223.45;107082;1257;71462;-87
2023/01/11 06:07:16;;;;;;;;;;;;;;;1.81;85.45;101221.76;107340;1254;61231;-87
2023/01/11 06:09:44;;;;;;;;;;;;;;;1.79;85.47;101219.40;107511;1254;61266;-89
2023/01/11 06:12:11;;;;;;;;;;;;;;;1.78;85.64;101215.02;107270;1254;74733;-87
2023/01/11 06:15:01;;;;;;;;;;;;;;;1.78;85.56;101216.40;107287;1254;65888;-89
2023/01/11 06:20:43;;;;;;;;;;;;;;;1.78;85.38;101211.86;107357;1260;61378;-89
2023/01/11 06:23:20;;;;;;;;;;;;;;;1.77;85.35;101216.52;107233;1254;59344;-91
2023/01/11 06:25:47;;;;;;;;;;;;;;;1.77;85.46;101218.95;107432;1254;74684;-89
2023/01/11 06:28:22;;;;;;;;;;;;;;;1.77;85.47;101221.70;107595;1254;66809;-89
2023/01/11 06:38:12;;;;;;;;;;;;;;;1.85;85.53;101220.48;107387;1259;61499;-82
2023/01/11 06:40:39;;;;;;;;;;;;;;;1.87;85.59;101211.83;107007;1260;73603;-84
2023/01/11 06:43:36;;;;;;;;;;;;;;;1.89;85.45;101210.03;107176;1260;65812;-88
2023/01/11 06:46:25;;;;;;;;;;;;;;;1.95;85.47;101209.92;106830;1261;72337;-83
2023/01/11 06:48:52;;;;;;;;;;;;;;;2.02;85.52;101206.77;106928;1260;61449;-83
2023/01/11 06:51:24;;;;;;;;;;;;;;;2.10;85.57;101205.20;106977;1260;61373;-83
2023/01/11 06:53:51;;;;;;;;;;;;;;;2.20;85.56;101200.84;106972;1259;73127;-83
2023/01/11 06:56:18;;;;;;;;;;;;;;;2.31;85.61;101198.31;107128;1262;66938;-81
2023/01/11 06:58:45;;;;;;;;;;;;;;;2.44;85.59;101195.66;107233;1259;72718;-81
2023/01/11 07:01:13;;;;;;;;;;;;;;;2.58;85.57;101192.86;107109;1263;61374;-81
2023/01/11 07:03:46;;;;;;;;;;;;;;;2.67;85.51;101192.11;107215;1258;61162;-82
2023/01/11 07:06:21;;;;;;;;;;;;;;;2.76;85.27;101192.31;107223;1260;74674;-82
2023/01/11 07:08:54;;;;;;;;;;;;;;;2.85;85.25;101189.79;107235;1259;66092;-82
2023/01/11 07:11:23;;;;;;;;;;;;;;;2.95;85.16;101185.88;107142;1259;71467;-82
2023/01/11 07:13:50;;;;;;;;;;;;;;;3.03;85.06;101183.60;107036;1259;61371;-82
2023/01/11 07:16:17;;;;;;;;;;;;;;;3.16;84.85;101184.06;107073;1260;61552;-82
2023/01/11 07:18:57;;;;;;;;;;;;;;;3.25;84.84;101184.96;106995;1259;74669;-82
2023/01/11 07:21:25;;;;;;;;;;;;;;;3.32;84.63;101184.85;107092;1260;65811;-82
2023/01/11 07:30:54;;;;;;;;;;;;;;;3.64;84.37;101182.97;106850;1259;61208;-87
2023/01/11 07:33:27;;;;;;;;;;;;;;;3.74;84.19;101183.74;106882;1259;73165;-87
2023/01/11 07:35:55;;;;;;;;;;;;;;;3.83;84.00;101182.91;107108;1259;65921;-82
2023/01/11 07:38:23;;;;;;;;;;;;;;;3.91;83.82;101177.25;108658;1260;73219;-82
2023/01/11 07:40:53;;;;;;;;;;;;;;;3.99;83.78;101181.39;107987;1260;59704;-82
2023/01/11 07:43:22;;;;;;;;;;;;;;;4.10;83.81;101181.65;107757;1260;59817;-82
2023/01/11 07:45:51;;;;;;;;;;;;;;;4.19;83.42;101185.29;107234;1258;74911;-83
2023/01/11 07:48:23;;;;;;;;;;;;;;;4.24;83.38;101185.98;107279;1254;65910;-83
2023/01/11 07:50:51;;;;;;;;;;;;;;;4.33;83.30;101183.13;107254;1253;72541;-83
2023/01/11 07:53:26;;;;;;;;;;;;;;;4.42;83.30;101183.14;107697;1254;61183;-83
2023/01/11 07:55:54;;;;;;;;;;;;;;;4.51;83.11;101177.38;108896;1254;59915;-83
2023/01/11 07:58:21;;;;;;;;;;;;;;;4.60;82.96;101170.59;107495;1254;74447;-82
2023/01/11 08:01:00;;;;;;;;;;;;;;;4.69;82.83;101162.39;107515;1254;65733;-83
2023/01/11 08:03:28;;;;;;;;;;;;;;;4.76;82.63;101151.52;107548;1254;73226;-82
2023/01/11 08:05:55;;;;;;;;;;;;;;;4.84;82.58;101147.61;107510;1253;61240;-82
2023/01/11 08:08:22;;;;;;;;;;;;;;;4.93;82.47;101148.95;107750;1254;59804;-82
2023/01/11 08:16:23;;;;;;;;;;;;;;;5.18;81.81;101149.89;107505;1259;71432;-82
2023/01/11 08:18:58;;;;;;;;;;;;;;;5.23;81.60;101147.04;107173;1262;61275;-82
2023/01/11 08:21:27;;;;;;;;;;;;;;;5.25;81.32;101146.30;107129;1253;61292;-82
2023/01/11 08:23:56;;;;;;;;;;;;;;;5.27;81.24;101145.54;107493;1254;74720;-82
2023/01/11 08:26:23;;;;;;;;;;;;;;;5.28;81.07;101142.10;107396;1256;65802;-82
2023/01/11 08:28:50;;;;;;;;;;;;;;;5.27;80.85;101145.50;107342;1254;335462;-82
2023/01/11 08:31:17;;;;;;;;;;;;;;;5.26;80.71;101154.71;107426;1257;61308;-82
2023/01/11 08:33:44;;;;;;;;;;;;;;;5.24;80.63;101151.09;107474;1254;61285;-82
2023/01/11 08:36:11;;;;;;;;;;;;;;;5.23;80.58;101151.04;107454;1254;74423;-82
2023/01/11 08:38:48;;;;;;;;;;;;;;;5.24;80.57;101145.21;107450;1254;67318;-83
2023/01/11 08:41:18;;;;;;;;;;;;;;;5.27;80.36;101143.42;108024;1254;72427;-83
2023/01/11 08:43:46;;;;;;;;;;;;;;;5.26;80.24;101139.59;107248;1256;61228;-83
2023/01/11 08:46:13;;;;;;;;;;;;;;;5.26;80.12;101137.30;107204;1254;61398;-83
2023/01/11 08:48:41;;;;;;;;;;;;;;;5.27;80.12;101135.45;107362;1254;73032;-83
2023/01/11 08:51:09;;;;;;;;;;;;;;;5.29;80.12;101135.36;107314;1254;67053;-83
2023/01/11 08:53:36;;;;;;;;;;;;;;;5.34;80.02;101133.52;107342;1254;71507;-83
2023/01/11 08:56:04;;;;;;;;;;;;;;;5.37;79.98;101136.83;107497;1256;61174;-83
2023/01/11 08:58:31;;;;;;;;;;;;;;;5.43;79.90;101137.82;107454;1253;61154;-82
2023/01/11 09:01:06;;;;;;;;;;;;;;;5.48;79.65;101134.38;107585;1254;73388;-83
2023/01/11 09:03:34;;;;;;;;;;;;;;;5.48;79.58;101133.23;107600;1257;67099;-83
2023/01/11 09:06:08;;;;;;;;;;;;;;;5.49;79.54;101131.86;107561;1253;73557;-83
2023/01/11 09:08:37;;;;;;;;;;;;;;;5.48;79.31;101135.80;107431;1253;61155;-83
2023/01/11 09:11:52;;;;;;;;;;;;;;;5.49;79.15;101125.96;107425;1254;59811;-83
2023/01/11 09:13:58;;;;;;;;;;;;;;;5.49;79.11;101128.20;107368;1255;73194;-83
2023/01/11 09:16:30;;;;;;;;;;;;;;;5.51;79.05;101125.50;107474;1254;67056;-83
2023/01/11 09:18:57;;;;;;;;;;;;;;;5.54;79.08;101124.30;107400;1260;71860;-83
2023/01/11 09:21:24;;;;;;;;;;;;;;;5.59;78.98;101122.27;107519;1253;59434;-82
2023/01/11 09:24:06;;;;;;;;;;;;;;;5.59;78.99;101112.88;107504;1254;61269;-88
2023/01/11 09:36:26;;;;;;;;;;;;;;;5.87;78.40;101093.38;107343;1258;59250;-88
2023/01/11 09:49:12;;;;;;;;;;;;;;;5.94;77.89;101079.63;107431;1254;72690;-88
2023/01/11 09:55:24;;;;;;;;;;;;;;;5.98;77.68;101073.08;107296;1253;61359;-87
2023/01/11 09:58:17;;;;;;;;;;;;;;;5.97;77.53;101064.84;107813;1253;72694;-83
2023/01/11 10:00:52;;;;;;;;;;;;;;;5.99;77.60;101061.80;107634;1253;65900;-83
2023/01/11 10:03:28;;;;;;;;;;;;;;;6.03;77.38;101058.84;108936;1254;73238;-83
2023/01/11 10:06:18;;;;;;;;;;;;;;;6.09;77.30;101054.61;107901;1259;59626;-83
2023/01/11 10:12:22;;;;;;;;;;;;;;;6.27;77.10;101040.64;107598;1253;74436;-83
2023/01/11 10:15:06;;;;;;;;;;;;;;;6.33;76.88;101033.95;107584;1253;67289;-83
2023/01/11 10:17:49;;;;;;;;;;;;;;;6.41;76.74;101031.35;107667;1254;72517;-87
2023/01/11 10:23:48;;;;;;;;;;;;;;;6.53;76.35;101017.75;107492;1253;61136;-82
2023/01/11 10:26:23;;;;;;;;;;;;;;;6.54;76.13;101008.77;107760;1254;73373;-83
2023/01/11 10:29:06;;;;;;;;;;;;;;;6.57;75.90;100999.48;107674;1254;65826;-83
2023/01/11 10:34:37;;;;;;;;;;;;;;;6.56;75.57;100993.49;107531;1260;61359;-82
2023/01/11 10:49:28;;;;;;;;;;;;;;;6.52;75.07;100989.84;107410;1254;61293;-88
2023/01/11 10:55:23;;;;;;;;;;;;;;;6.54;74.85;100977.73;107408;1253;73128;-87
2023/01/11 11:08:02;;;;;;;;;;;;;;;6.52;74.54;100964.89;107586;1253;61622;-87
2023/01/11 11:10:34;;;;;;;;;;;;;;;6.54;74.51;100961.84;107470;1253;72540;-88
2023/01/11 11:13:16;;;;;;;;;;;;;;;6.54;74.47;100957.33;107160;1254;66526;-88
2023/01/11 11:15:52;;;;;;;;;;;;;;;6.54;74.39;100952.44;107461;1253;72439;-83
2023/01/11 11:18:20;;;;;;;;;;;;;;;6.53;74.28;100958.48;107495;1253;61440;-83
2023/01/11 11:47:42;;;;;;;;;;;;;;;6.66;73.68;100909.89;107123;1256;73969;-88
2023/01/11 11:50:24;;;;;;;;;;;;;;;6.63;73.57;100903.66;107125;1254;61288;-83
2023/01/11 11:53:02;;;;;;;;;;;;;;;6.61;73.59;100896.94;107236;1254;61267;-83
2023/01/11 11:55:32;;;;;;;;;;;;;;;6.61;73.53;100886.51;107379;1256;73352;-83
2023/01/11 11:58:04;;;;;;;;;;;;;;;6.57;73.31;100878.67;107619;1254;67348;-82
2023/01/11 12:00:33;;;;;;;;;;;;;;;6.58;73.49;100872.75;107705;1253;73196;-82
2023/01/11 12:03:37;;;;;;;;;;;;;;;6.57;73.28;100865.20;107216;1254;61506;-87
2023/01/11 12:06:07;;;;;;;;;;;;;;;6.50;73.12;100863.30;107308;1253;61359;-87
2023/01/11 12:16:12;;;;;;;;;;;;;;;6.40;73.23;100828.40;107218;1254;72143;-87
2023/01/11 12:18:41;;;;;;;;;;;;;;;6.36;73.13;100826.48;107186;1256;61451;-88
2023/01/11 12:27:58;;;;;;;;;;;;;;;6.29;73.15;100828.77;107182;1254;66080;-88
2023/01/11 13:01:28;;;;;;;;;;;;;;;6.11;72.89;100808.48;107302;1254;66813;-87
2023/01/11 13:15:01;;;;;;;;;;;;;;;6.00;72.91;100802.64;107267;1254;74375;-87
2023/01/11 13:17:46;;;;;;;;;;;;;;;5.99;72.80;100798.92;106562;1261;67063;-87
2023/01/11 13:20:45;;;;;;;;;;;;;;;5.96;72.79;100798.45;106547;1262;72640;-88
2023/01/11 13:27:23;;;;;;;;;;;;;;;5.95;72.91;100798.94;106729;1262;61212;-88
2023/01/11 13:37:19;;;;;;;;;;;;;;;5.93;73.00;100789.88;106764;1261;71359;-88
2023/01/11 13:43:53;;;;;;;;;;;;;;;5.90;73.03;100789.77;106619;1262;61502;-89
2023/01/11 13:50:28;;;;;;;;;;;;;;;5.86;72.96;100787.14;107298;1256;66307;-88
2023/01/11 13:57:03;;;;;;;;;;;;;;;5.82;73.12;100782.46;107401;1256;61169;-89
2023/01/11 13:59:35;;;;;;;;;;;;;;;5.83;73.38;100787.75;107570;1254;61052;-83
2023/01/11 14:02:22;;;;;;;;;;;;;;;5.86;73.39;100791.34;107469;1254;74070;-88
2023/01/11 14:04:50;;;;;;;;;;;;;;;5.88;73.35;100788.30;107322;1257;65687;-87
2023/01/11 14:07:42;;;;;;;;;;;;;;;5.89;73.29;100785.35;107398;1257;72444;-90
2023/01/11 14:10:19;;;;;;;;;;;;;;;5.88;73.31;100780.65;107175;1259;61340;-89
2023/01/11 14:13:05;;;;;;;;;;;;;;;5.88;73.20;100777.52;107290;1253;61263;-88
2023/01/11 14:15:42;;;;;;;;;;;;;;;5.89;73.20;100776.48;107246;1254;74695;-88
2023/01/11 14:18:24;;;;;;;;;;;;;;;5.88;73.25;100775.42;107385;1253;65448;-86
2023/01/11 14:20:52;;;;;;;;;;;;;;;5.88;73.28;100770.01;107216;1254;72696;-88
2023/01/11 14:23:20;;;;;;;;;;;;;;;5.91;73.25;100773.27;107323;1257;61119;-89
2023/01/11 14:25:58;;;;;;;;;;;;;;;5.94;73.35;100770.80;107168;1253;61253;-88
2023/01/11 14:38:23;;;;;;;;;;;;;;;5.95;73.21;100764.42;107171;1254;61254;-83
2023/01/11 14:47:52;;;;;;;;;;;;;;;5.94;73.28;100766.45;107211;1256;66921;-88
2023/01/11 14:50:20;;;;;;;;;;;;;;;5.91;73.15;100768.55;107064;1259;72700;-87
2023/01/11 14:52:55;;;;;;;;;;;;;;;5.90;73.24;100767.46;107010;1256;60610;-87
2023/01/11 15:02:29;;;;;;;;;;;;;;;5.89;73.33;100763.94;107094;1256;65518;-88
2023/01/11 15:08:45;;;;;;;;;;;;;;;5.83;73.34;100761.25;107266;1254;59284;-88
2023/01/11 15:11:35;;;;;;;;;;;;;;;5.81;73.35;100758.55;107629;1256;61071;-83
2023/01/11 15:14:03;;;;;;;;;;;;;;;5.82;73.38;100758.95;107716;1253;75657;-83
2023/01/11 15:19:29;;;;;;;;;;;;;;;5.86;73.47;100749.90;107580;1254;71190;-82
2023/01/11 15:21:58;;;;;;;;;;;;;;;5.90;73.57;100743.99;107434;1253;61304;-81
2023/01/11 15:24:35;;;;;;;;;;;;;;;5.94;73.44;100738.27;107553;1253;61205;-82
2023/01/11 15:55:49;;;;;;;;;;;;;;;5.95;73.32;100717.72;107421;1254;59980;-86
2023/01/11 15:58:35;;;;;;;;;;;;;;;5.95;73.44;100713.89;107347;1257;74676;-87
2023/01/11 16:01:20;;;;;;;;;;;;;;;5.96;73.42;100710.31;107340;1258;123637;-83
2023/01/11 16:04:06;;;;;;;;;;;;;;;5.96;73.38;100712.41;107927;1254;72967;-83
2023/01/11 16:06:37;;;;;;;;;;;;;;;5.97;73.41;100710.34;107613;1254;123911;-83
2023/01/11 16:09:10;;;;;;;;;;;;;;;5.96;73.39;100710.27;107877;1259;61216;-82
2023/01/11 16:12:00;;;;;;;;;;;;;;;5.93;73.51;100708.23;107614;1256;124514;-83
2023/01/11 16:14:36;;;;;;;;;;;;;;;5.94;73.41;100707.39;107592;1257;66739;-83
2023/01/11 16:17:03;;;;;;;;;;;;;;;5.94;73.43;100699.36;107772;1254;72514;-83
2023/01/11 16:19:31;;;;;;;;;;;;;;;5.94;73.45;100699.71;107301;1255;125365;-83
2023/01/11 16:22:01;;;;;;;;;;;;;;;5.94;73.53;100703.20;107355;1255;61345;-82
2023/01/11 16:24:31;;;;;;;;;;;;;;;5.95;73.55;100711.45;107393;1256;125180;-84
2023/01/11 16:27:00;;;;;;;;;;;;;;;5.96;73.51;100712.20;107449;1256;67021;-83
2023/01/11 16:29:31;;;;;;;;;;;;;;;5.98;73.60;100709.88;107783;1256;71664;-83
2023/01/11 16:31:59;;;;;;;;;;;;;;;6.00;73.74;100709.63;107536;1256;125017;-82
2023/01/11 16:34:27;;;;;;;;;;;;;;;6.04;73.67;100710.63;108380;1256;61274;-82
2023/01/11 16:36:56;;;;;;;;;;;;;;;6.05;73.56;100712.08;107376;1256;124657;-82
2023/01/11 16:39:27;;;;;;;;;;;;;;;6.05;73.54;100709.98;107757;1259;66068;-84
2023/01/11 16:41:58;;;;;;;;;;;;;;;6.06;73.60;100713.00;107510;1254;124139;-87
2023/01/11 16:44:49;;;;;;;;;;;;;;;6.09;73.55;100711.36;107422;1254;61260;-87
2023/01/11 16:47:22;;;;;;;;;;;;;;;6.03;73.47;100709.71;107349;1256;61282;-86
2023/01/11 16:50:11;;;;;;;;;;;;;;;6.03;73.55;100715.12;107524;1255;124276;-84
2023/01/11 16:52:43;;;;;;;;;;;;;;;6.02;73.56;100718.62;107412;1256;67302;-86
2023/01/11 16:55:14;;;;;;;;;;;;;;;6.02;73.51;100721.02;107162;1255;124518;-85
2023/01/11 16:58:02;;;;;;;;;;;;;;;6.01;73.59;100722.19;107335;1255;59283;-88
2023/01/11 17:00:40;;;;;;;;;;;;;;;6.00;73.59;100719.71;107819;1254;123799;-92
2023/01/11 17:03:18;;;;;;;;;;;;;;;6.00;73.61;100720.56;107849;1256;73561;-88
2023/01/11 17:05:54;;;;;;;;;;;;;;;5.98;73.56;100720.17;107781;1260;125319;-90
2023/01/11 17:08:31;;;;;;;;;;;;;;;5.95;73.69;100716.38;107871;1256;72370;-90
2023/01/11 17:11:00;;;;;;;;;;;;;;;5.93;73.77;100710.86;107750;1256;61155;-92
2023/01/11 17:13:53;;;;;;;;;;;;;;;5.99;73.73;100717.03;107722;1256;125431;-91
2023/01/11 17:16:24;;;;;;;;;;;;;;;6.00;73.73;100717.77;107622;1256;74892;-89
2023/01/11 17:18:51;;;;;;;;;;;;;;;6.02;73.71;100714.36;107701;1257;124828;-92
2023/01/11 17:21:19;;;;;;;;;;;;;;;6.04;73.77;100715.88;107996;1256;72657;-91
2023/01/11 17:23:47;;;;;;;;;;;;;;;6.07;73.76;100713.88;107826;1262;124957;-91
2023/01/11 17:26:24;;;;;;;;;;;;;;;6.11;73.71;100717.70;107735;1260;59539;-90
2023/01/11 17:28:54;;;;;;;;;;;;;;;6.12;73.69;100717.26;107686;1258;73489;-90
2023/01/11 17:31:24;;;;;;;;;;;;;;;6.13;73.70;100715.21;107673;1262;125098;-92
2023/01/11 17:34:01;;;;;;;;;;;;;;;6.15;73.65;100716.17;107985;1256;72505;-91
2023/01/11 17:36:28;;;;;;;;;;;;;;;6.17;73.60;100711.54;107654;1256;125332;-92
2023/01/11 17:38:56;;;;;;;;;;;;;;;6.19;73.69;100712.32;107779;1256;60484;-92
2023/01/11 17:47:02;;;;;;;;;;;;;;;6.24;73.60;100711.83;108338;1256;73721;-93
2023/01/11 17:49:29;;;;;;;;;;;;;;;6.24;73.54;100713.91;108463;1256;124468;-92
2023/01/11 17:52:06;;;;;;;;;;;;;;;6.24;73.54;100714.11;108984;1259;59470;-93
2023/01/11 17:54:35;;;;;;;;;;;;;;;6.25;73.61;100711.37;108708;1256;123937;-93
2023/01/11 17:57:10;;;;;;;;;;;;;;;6.27;73.52;100712.99;108859;1256;67896;-93
2023/01/11 17:59:43;;;;;;;;;;;;;;;6.27;73.62;100716.29;108372;1262;123847;-92
2023/01/11 18:02:21;;;;;;;;;;;;;;;6.27;73.52;100714.20;108743;1261;58996;-92
2023/01/11 18:05:17;;;;;;;;;;;;;;;6.23;73.46;100707.60;108910;1256;59686;-93
2023/01/11 18:08:00;;;;;;;;;;;;;;;6.20;73.48;100698.79;107871;1257;124232;-93
2023/01/11 18:10:39;;;;;;;;;;;;;;;6.22;73.52;100702.14;108907;1256;67705;-94
2023/01/11 18:13:27;;;;;;;;;;;;;;;6.20;73.48;100703.83;108303;1262;124090;-93
2023/01/11 18:16:05;;;;;;;;;;;;;;;6.18;73.49;100706.20;107692;1259;61166;-93
2023/01/11 18:18:55;;;;;;;;;;;;;;;6.17;73.56;100705.98;108364;1257;123751;-94
2023/01/11 18:21:43;;;;;;;;;;;;;;;6.15;73.50;100703.27;107785;1256;74405;-93
2023/01/11 18:24:24;;;;;;;;;;;;;;;6.14;73.57;100705.50;107669;1256;125056;-94
2023/01/11 18:27:18;;;;;;;;;;;;;;;6.13;73.57;100706.52;108011;1256;73297;-94
2023/01/11 18:30:01;;;;;;;;;;;;;;;6.10;73.56;100703.59;107761;1264;124759;-93
2023/01/11 18:32:39;;;;;;;;;;;;;;;6.08;73.66;100698.29;107705;1261;60480;-91
2023/01/11 18:35:14;;;;;;;;;;;;;;;6.08;73.78;100697.58;108640;1260;76624;-93
2023/01/11 18:37:57;;;;;;;;;;;;;;;6.10;73.82;100699.56;108698;1262;123998;-93
2023/01/11 18:40:38;;;;;;;;;;;;;;;6.09;73.96;100703.18;107792;1260;71482;-93
2023/01/11 18:43:43;;;;;;;;;;;;;;;6.09;74.12;100705.27;108587;1261;125117;-93
2023/01/11 18:46:26;;;;;;;;;;;;;;;6.10;74.43;100709.66;107813;1267;60524;-92
2023/01/11 18:48:57;;;;;;;;;;;;;;;6.05;74.57;100708.05;107762;1267;124052;-92
2023/01/11 18:55:26;;;;;;;;;;;;;;;5.94;75.04;100706.38;106311;1271;124230;-94
2023/01/11 18:58:06;;;;;;;;;;;;;;;5.96;75.15;100712.92;107842;1267;59600;-95
2023/01/11 19:00:52;;;;;;;;;;;;;;;5.96;75.28;100712.89;107098;1265;123789;-90
2023/01/11 19:03:36;;;;;;;;;;;;;;;5.95;75.40;100705.88;107357;1267;75277;-91
2023/01/11 19:06:57;;;;;;;;;;;;;;;;;;;;;
2023/01/11 19:09:46;;;;;;;;;;;;;;;5.89;75.67;100703.49;107625;1273;72768;-92
2023/01/11 19:12:26;;;;;;;;;;;;;;;5.84;75.84;100705.23;108101;1270;123020;-92
2023/01/11 19:15:00;;;;;;;;;;;;;;;5.79;75.95;100705.02;108288;1265;59239;-91
2023/01/11 19:27:05;;;;;;;;;;;;;;;5.72;76.73;100704.86;107535;1273;59190;-84
2023/01/11 19:29:33;;;;;;;;;;;;;;;5.71;76.84;100705.15;107952;1264;59611;-91
2023/01/11 19:32:01;;;;;;;;;;;;;;;5.67;77.01;100705.70;108033;1265;125201;-92
2023/01/11 19:34:33;;;;;;;;;;;;;;;5.63;77.15;100708.85;106982;1261;66061;-92
2023/01/11 19:37:02;;;;;;;;;;;;;;;5.63;77.38;100706.92;107086;1261;124892;-92